CheckWX is a tool to help pilots better visualize weather data.  It is not intended as a substitute for an official pre-flight weather briefing.

02:47:44 UTC

KELO METAR
Ely Municipal Airport
Ely, Minnesota, USA
Current

33 mins ago

KELO 230215Z AUTO 25004KT 10SM SCT055 OVC075 13/12 A2984 RMK AO2
Observed
Sep-23 @ 02:15 UTC
Wind
  • 250° at 4 KTS
Visibility
10 SM
Flight Rules
VFR
Cloud Levels
  • Scattered at 5,500' AGL
  • Overcast at 7,500' AGL
Temperature
13°C / 55°F
Dewpoint
12°C / 54°F
Humidity
94%
Altimeter
29.84" Hg
Pressure
1010.52 hPa
Previous

51 mins ago

KELO 230157Z AUTO 25003KT 10SM SCT055 OVC065 13/12 A2984 RMK AO2
Observed
Sep-23 @ 01:57 UTC
Wind
  • 250° at 3 KTS
Visibility
10 SM
Flight Rules
VFR
Cloud Levels
  • Scattered at 5,500' AGL
  • Overcast at 6,500' AGL
Temperature
13°C / 55°F
Dewpoint
12°C / 54°F
Humidity
94%
Altimeter
29.84" Hg
Pressure
1010.52 hPa
Previous

1 hour ago

KELO 230140Z AUTO 00000KT 10SM SCT055 OVC065 13/12 A2983 RMK AO2
Observed
Sep-23 @ 01:40 UTC
Visibility
10 SM
Flight Rules
VFR
Cloud Levels
  • Scattered at 5,500' AGL
  • Overcast at 6,500' AGL
Temperature
13°C / 55°F
Dewpoint
12°C / 54°F
Humidity
94%
Altimeter
29.83" Hg
Pressure
1010.12 hPa